Time;durP1;ratioP1;P1;durP2;ratioP2;P2;SDS_P1;SDS_P2;PMS_P1;PMS_P2;Temp;Humidity;BMP_temperature;BMP_pressure;BME280_temperature;BME280_humidity;BME280_pressure;Samples;Min_cycle;Max_cycle;Signal;HPM_P1;HPM_P2
2022/01/24 00:01:16;;;;;;;9.03;6.33;;;7.80;99.10;;;;;;5072473;28;20455;-72
2022/01/24 00:03:43;;;;;;;9.13;6.23;;;7.80;99.10;;;;;;5072382;28;20456;-72
2022/01/24 00:06:13;;;;;;;6.90;6.13;;;7.80;99.30;;;;;;5072695;28;20475;-72
2022/01/24 00:08:40;;;;;;;8.93;5.90;;;7.80;99.30;;;;;;5073527;28;20467;-72
2022/01/24 00:11:10;;;;;;;9.20;6.43;;;7.90;99.40;;;;;;5076407;28;20455;-72
2022/01/24 00:16:32;;;;;;;10.00;7.07;;;7.80;99.30;;;;;;5076005;28;20440;-72
2022/01/24 00:27:13;;;;;;;7.73;6.47;;;7.80;99.20;;;;;;5076191;28;20404;-72
2022/01/24 00:29:39;;;;;;;7.00;6.10;;;7.80;99.20;;;;;;5076028;28;20445;-72
2022/01/24 00:32:08;;;;;;;8.30;6.20;;;7.80;99.20;;;;;;5075955;28;20453;-72
2022/01/24 00:34:35;;;;;;;7.13;6.10;;;7.80;99.30;;;;;;5075545;28;21054;-72
2022/01/24 00:37:02;;;;;;;7.03;5.80;;;7.80;99.40;;;;;;5076155;28;20449;-70
2022/01/24 00:39:29;;;;;;;10.20;7.00;;;7.80;99.40;;;;;;5076034;28;20881;-71
2022/01/24 00:42:08;;;;;;;6.50;5.60;;;7.70;99.20;;;;;;5076069;28;20445;-71
2022/01/24 00:47:25;;;;;;;8.43;5.50;;;7.70;99.40;;;;;;5075149;28;20490;-71
2022/01/24 00:53:01;;;;;;;8.10;6.00;;;7.70;99.60;;;;;;5075834;28;20773;-72
2022/01/24 00:53:16;;;;;;;7.00;5.20;;;7.70;99.60;;;;;;5075389;28;20535;-72
2022/01/24 00:55:44;;;;;;;6.60;5.17;;;7.70;99.40;;;;;;5075558;28;20468;-72
2022/01/24 00:58:11;;;;;;;6.43;5.77;;;7.60;99.20;;;;;;5075200;28;20440;-72
2022/01/24 01:00:38;;;;;;;7.27;5.77;;;7.60;99.30;;;;;;5075092;28;20967;-71
2022/01/24 01:03:06;;;;;;;6.67;6.07;;;7.60;99.30;;;;;;5075114;28;20452;-72
2022/01/24 01:05:49;;;;;;;7.60;5.87;;;7.60;99.30;;;;;;5075246;28;20548;-72
2022/01/24 01:19:15;;;;;;;6.00;5.40;;;7.50;99.00;;;;;;5075256;28;20943;-72
2022/01/24 01:21:42;;;;;;;6.47;5.70;;;7.50;99.00;;;;;;5074758;28;20471;-72
2022/01/24 01:24:08;;;;;;;7.87;6.03;;;7.40;98.90;;;;;;5074551;28;20946;-72
2022/01/24 01:26:40;;;;;;;7.33;6.07;;;7.40;99.00;;;;;;5074958;28;20449;-72
2022/01/24 01:29:11;;;;;;;9.10;6.30;;;7.40;99.00;;;;;;5074897;28;20437;-71
2022/01/24 01:31:45;;;;;;;5.73;5.10;;;7.30;98.90;;;;;;5074730;28;20452;-71
2022/01/24 01:34:26;;;;;;;6.90;5.47;;;7.30;98.90;;;;;;5074671;28;20460;-72
2022/01/24 01:37:21;;;;;;;7.93;6.30;;;7.30;98.90;;;;;;5074430;28;20919;-72
2022/01/24 01:53:35;;;;;;;7.60;5.73;;;7.10;99.00;;;;;;5040994;28;20434;-72
2022/01/24 01:56:01;;;;;;;9.10;6.43;;;7.10;99.10;;;;;;5075235;28;20468;-72
2022/01/24 01:58:29;;;;;;;7.57;6.40;;;7.10;99.10;;;;;;5074192;28;20448;-72
2022/01/24 02:00:57;;;;;;;8.07;5.63;;;7.00;99.10;;;;;;5074191;28;20448;-71
2022/01/24 02:03:25;;;;;;;7.10;5.90;;;7.00;99.20;;;;;;5073943;28;20460;-71
2022/01/24 02:05:52;;;;;;;10.73;5.33;;;7.00;99.20;;;;;;5074032;28;20471;-71
2022/01/24 02:08:22;;;;;;;6.83;6.03;;;7.00;99.20;;;;;;5073749;28;20958;-72
2022/01/24 02:10:50;;;;;;;9.67;6.97;;;7.00;99.30;;;;;;5074109;28;20851;-72
2022/01/24 02:13:17;;;;;;;6.30;5.50;;;6.90;99.30;;;;;;5073921;28;20444;-72
2022/01/24 02:15:52;;;;;;;6.63;5.90;;;7.00;99.50;;;;;;5073892;28;20472;-71
2022/01/24 02:18:29;;;;;;;7.70;6.03;;;6.90;99.30;;;;;;5073680;28;20909;-72
2022/01/24 02:21:09;;;;;;;7.97;5.87;;;6.90;99.20;;;;;;5073900;28;20517;-72
2022/01/24 02:23:43;;;;;;;6.70;6.00;;;6.90;99.30;;;;;;5073874;28;20436;-72
2022/01/24 02:26:17;;;;;;;7.33;5.67;;;6.90;99.30;;;;;;5073467;28;20464;-72
2022/01/24 02:31:47;;;;;;;7.67;5.23;;;6.90;99.50;;;;;;5072793;28;20432;-72
2022/01/24 02:34:28;;;;;;;7.30;6.33;;;6.90;99.50;;;;;;5074031;28;20461;-72
2022/01/24 02:36:57;;;;;;;7.57;6.10;;;6.80;99.50;;;;;;5073645;28;20519;-72
2022/01/24 02:50:40;;;;;;;6.40;5.20;;;6.80;99.90;;;;;;5073303;28;20401;-72
2022/01/24 02:53:07;;;;;;;6.60;5.80;;;6.80;99.90;;;;;;5073533;28;20439;-71
2022/01/24 02:55:36;;;;;;;6.80;5.90;;;6.80;99.90;;;;;;5073309;28;20487;-71
2022/01/24 02:58:03;;;;;;;7.67;6.20;;;6.90;99.90;;;;;;5073409;28;20441;-71
2022/01/24 03:00:30;;;;;;;7.10;6.37;;;6.80;99.90;;;;;;5073136;28;20440;-71
2022/01/24 03:02:57;;;;;;;9.37;6.10;;;6.90;99.90;;;;;;5073200;28;20463;-72
2022/01/24 03:05:24;;;;;;;6.40;5.73;;;6.80;99.90;;;;;;5073270;28;20461;-72
2022/01/24 03:07:51;;;;;;;7.40;6.50;;;6.90;99.90;;;;;;5073315;28;20455;-72
2022/01/24 03:10:26;;;;;;;8.20;6.10;;;6.80;99.90;;;;;;5073347;28;20544;-71
2022/01/24 03:13:10;;;;;;;8.40;7.47;;;6.90;99.90;;;;;;5073022;28;20820;-72
2022/01/24 03:15:36;;;;;;;7.33;5.70;;;6.80;99.90;;;;;;5073133;28;20484;-72
2022/01/24 03:18:03;;;;;;;6.60;5.60;;;6.80;99.90;;;;;;5073255;28;20452;-71
2022/01/24 03:20:30;;;;;;;8.93;6.30;;;6.80;99.90;;;;;;5073193;28;20445;-71
2022/01/24 03:22:57;;;;;;;6.87;5.50;;;6.80;99.90;;;;;;5073157;28;20447;-71
2022/01/24 03:25:23;;;;;;;9.83;6.00;;;6.80;99.90;;;;;;5073080;28;20471;-72
2022/01/24 03:27:57;;;;;;;6.00;5.40;;;6.80;99.80;;;;;;5073158;28;20811;-73
2022/01/24 03:30:24;;;;;;;7.67;5.80;;;6.80;99.70;;;;;;5072843;28;20906;-72
2022/01/24 03:32:51;;;;;;;8.90;6.20;;;6.80;99.60;;;;;;5072812;28;20437;-72
2022/01/24 03:35:18;;;;;;;6.37;5.73;;;6.70;99.50;;;;;;5072910;28;20484;-72
2022/01/24 03:37:45;;;;;;;6.93;5.47;;;6.70;99.30;;;;;;5072748;28;20444;-71
2022/01/24 03:40:12;;;;;;;8.17;5.60;;;6.70;99.20;;;;;;5073040;28;20440;-72
2022/01/24 03:42:39;;;;;;;6.33;5.73;;;6.70;99.10;;;;;;5072672;28;20931;-71
2022/01/24 03:45:10;;;;;;;11.73;6.67;;;6.60;99.10;;;;;;5075828;28;20456;-72
2022/01/24 03:47:56;;;;;;;6.90;5.27;;;6.60;99.30;;;;;;5076819;28;20433;-72
2022/01/24 03:50:23;;;;;;;6.47;5.70;;;6.60;99.40;;;;;;5076771;28;20443;-71
2022/01/24 03:52:50;;;;;;;5.97;5.30;;;6.60;99.50;;;;;;5076690;28;20451;-71
2022/01/24 03:55:16;;;;;;;6.90;6.20;;;6.50;99.50;;;;;;5076176;28;20522;-71
2022/01/24 03:57:43;;;;;;;6.33;5.67;;;6.50;99.60;;;;;;5076562;28;20457;-72
2022/01/24 04:00:13;;;;;;;6.00;5.30;;;6.50;99.60;;;;;;5076527;28;20494;-71
2022/01/24 04:02:40;;;;;;;9.73;7.03;;;6.50;99.60;;;;;;5076324;28;20451;-72
2022/01/24 04:05:07;;;;;;;8.53;5.90;;;6.40;99.40;;;;;;5076740;28;20460;-72
2022/01/24 04:07:34;;;;;;;5.60;5.10;;;6.30;99.10;;;;;;5076415;28;20800;-71
2022/01/24 04:10:05;;;;;;;5.50;5.00;;;6.30;98.80;;;;;;5076368;28;20444;-71
2022/01/24 04:12:33;;;;;;;5.57;4.97;;;6.20;98.60;;;;;;5076392;28;20437;-71
2022/01/24 04:15:11;;;;;;;9.40;5.20;;;6.20;98.60;;;;;;5076181;28;20537;-71
2022/01/24 04:17:42;;;;;;;9.97;5.30;;;6.20;98.40;;;;;;5076325;28;20502;-71
2022/01/24 04:22:57;;;;;;;6.03;5.13;;;6.10;98.40;;;;;;5076006;28;20904;-71
2022/01/24 04:25:24;;;;;;;5.37;4.87;;;6.00;98.30;;;;;;5075736;28;20973;-71
2022/01/24 04:27:52;;;;;;;5.03;4.53;;;6.00;98.40;;;;;;5076080;28;20449;-71
2022/01/24 04:30:19;;;;;;;6.80;5.90;;;6.00;98.50;;;;;;5075726;28;20445;-71
2022/01/24 04:32:47;;;;;;;6.03;5.50;;;6.00;98.70;;;;;;5075961;28;20445;-71
2022/01/24 04:35:14;;;;;;;6.43;5.53;;;6.00;98.80;;;;;;5075844;28;20487;-71
2022/01/24 04:37:41;;;;;;;6.53;5.23;;;6.00;99.20;;;;;;5075579;28;20961;-71
2022/01/24 04:40:09;;;;;;;6.10;5.50;;;5.90;98.90;;;;;;5075847;28;20440;-71
2022/01/24 04:42:45;;;;;;;6.47;5.57;;;6.00;99.00;;;;;;5075484;28;20968;-71
2022/01/24 04:45:30;;;;;;;6.17;5.40;;;5.90;99.10;;;;;;5075721;28;20460;-71
2022/01/24 04:50:58;;;;;;;8.07;5.30;;;5.90;99.40;;;;;;5075555;28;20408;-71
2022/01/24 04:53:50;;;;;;;6.17;5.67;;;5.90;99.60;;;;;;5075826;28;20436;-71
2022/01/24 04:56:17;;;;;;;5.70;5.10;;;5.90;99.70;;;;;;5075329;28;20932;-71
2022/01/24 04:58:44;;;;;;;6.70;6.10;;;5.90;99.90;;;;;;5075524;28;20444;-71
2022/01/24 05:01:12;;;;;;;8.17;5.37;;;5.90;99.90;;;;;;5075476;28;20444;-71
2022/01/24 05:03:40;;;;;;;7.97;6.80;;;5.90;99.90;;;;;;5075132;28;20485;-71
2022/01/24 05:06:07;;;;;;;7.53;6.60;;;6.00;99.90;;;;;;5076252;28;20464;-71
2022/01/24 05:08:34;;;;;;;7.20;6.50;;;6.00;99.90;;;;;;5075320;28;20448;-71
2022/01/24 05:11:05;;;;;;;9.40;7.30;;;6.00;99.90;;;;;;5075274;28;20444;-71
2022/01/24 05:24:25;;;;;;;13.27;7.17;;;6.20;99.90;;;;;;5043997;28;20518;-71
2022/01/24 05:26:52;;;;;;;8.00;7.13;;;6.20;99.90;;;;;;5074933;28;20486;-71
2022/01/24 05:29:19;;;;;;;8.50;6.83;;;6.20;99.90;;;;;;5074928;28;20436;-71
2022/01/24 05:35:10;;;;;;;8.43;6.97;;;6.30;99.90;;;;;;5074944;28;20467;-71
2022/01/24 05:37:39;;;;;;;8.17;6.63;;;6.40;99.90;;;;;;5074454;28;20433;-71
2022/01/24 05:40:08;;;;;;;7.60;6.73;;;6.40;99.90;;;;;;5074415;28;20849;-71
2022/01/24 05:42:35;;;;;;;8.40;7.43;;;6.40;99.90;;;;;;5074591;28;20452;-71
2022/01/24 05:45:03;;;;;;;11.60;6.93;;;6.40;99.90;;;;;;5074569;28;20467;-71
2022/01/24 05:47:29;;;;;;;7.87;6.97;;;6.40;99.90;;;;;;5074236;28;20953;-71
2022/01/24 05:49:56;;;;;;;8.13;7.33;;;6.50;99.90;;;;;;5074476;28;20440;-71
2022/01/24 05:52:24;;;;;;;7.57;6.80;;;6.50;99.90;;;;;;5074398;28;20456;-70
2022/01/24 05:54:51;;;;;;;7.40;6.70;;;6.50;99.90;;;;;;5073980;28;20982;-71
2022/01/24 05:57:18;;;;;;;7.30;6.10;;;6.50;99.90;;;;;;5074330;28;20452;-70
2022/01/24 05:59:44;;;;;;;7.33;6.57;;;6.50;99.90;;;;;;5074369;28;20490;-71
2022/01/24 06:02:11;;;;;;;7.27;6.60;;;6.50;99.90;;;;;;5074277;28;20444;-71
2022/01/24 06:04:38;;;;;;;8.57;7.70;;;6.60;99.90;;;;;;5073783;28;20994;-71
2022/01/24 06:07:05;;;;;;;8.40;6.67;;;6.60;99.90;;;;;;5074173;28;20449;-71
2022/01/24 06:09:33;;;;;;;8.43;7.53;;;6.60;99.90;;;;;;5074134;28;20452;-71
2022/01/24 06:12:00;;;;;;;7.87;7.03;;;6.60;99.90;;;;;;5074068;28;20429;-72
2022/01/24 06:14:27;;;;;;;13.83;8.43;;;6.60;99.90;;;;;;5073850;28;20475;-71
2022/01/24 06:16:54;;;;;;;8.60;7.43;;;6.60;99.90;;;;;;5074118;28;20444;-71
2022/01/24 06:19:21;;;;;;;8.23;7.10;;;6.60;99.90;;;;;;5073648;28;20917;-71
2022/01/24 06:21:47;;;;;;;7.63;6.60;;;6.70;99.90;;;;;;5073940;28;20448;-71
2022/01/24 06:24:14;;;;;;;7.47;6.77;;;6.70;99.90;;;;;;5073613;28;20440;-71
2022/01/24 06:26:43;;;;;;;7.80;7.07;;;6.70;99.90;;;;;;5073966;28;20452;-71
2022/01/24 06:29:11;;;;;;;7.23;6.53;;;6.70;99.90;;;;;;5074191;28;20467;-71
2022/01/24 06:31:38;;;;;;;7.00;6.30;;;6.70;99.90;;;;;;5073861;28;20458;-70
2022/01/24 06:34:05;;;;;;;5.57;5.07;;;6.60;99.90;;;;;;5073747;28;20463;-71
2022/01/24 06:36:31;;;;;;;6.43;5.83;;;6.60;99.90;;;;;;5073623;28;20507;-71
2022/01/24 06:38:59;;;;;;;7.53;6.03;;;6.70;99.90;;;;;;5073669;28;20498;-71
2022/01/24 06:41:31;;;;;;;6.33;5.67;;;6.60;99.90;;;;;;5073668;28;20545;-71
2022/01/24 06:43:59;;;;;;;6.20;5.63;;;6.60;99.90;;;;;;5073660;28;20433;-71
2022/01/24 06:46:26;;;;;;;8.13;7.30;;;6.60;99.90;;;;;;5073548;28;20468;-71
2022/01/24 06:48:52;;;;;;;8.40;7.50;;;6.60;99.90;;;;;;5073267;28;20918;-71
2022/01/24 06:51:20;;;;;;;7.80;6.50;;;6.60;99.90;;;;;;5073448;28;20468;-71
2022/01/24 06:53:47;;;;;;;9.37;6.90;;;6.50;99.90;;;;;;5073506;28;20440;-71
2022/01/24 06:56:15;;;;;;;6.27;5.37;;;6.50;99.90;;;;;;5073326;28;20484;-71
2022/01/24 06:58:42;;;;;;;7.03;6.30;;;6.50;99.90;;;;;;5073443;28;20445;-71
2022/01/24 07:01:10;;;;;;;7.93;6.77;;;6.40;99.90;;;;;;5073060;28;20954;-71
2022/01/24 07:03:37;;;;;;;8.13;7.03;;;6.40;99.90;;;;;;5073062;28;20464;-71
2022/01/24 07:06:04;;;;;;;7.57;5.97;;;6.40;99.90;;;;;;5073300;28;20494;-71
2022/01/24 07:08:30;;;;;;;9.80;6.40;;;6.40;99.90;;;;;;5073017;28;20934;-71
2022/01/24 07:10:57;;;;;;;6.97;6.27;;;6.30;99.90;;;;;;5073307;28;20448;-71
2022/01/24 07:13:24;;;;;;;11.10;6.40;;;6.30;99.90;;;;;;5073302;28;20441;-71
2022/01/24 07:15:54;;;;;;;7.27;6.53;;;6.20;99.90;;;;;;5073154;28;20510;-71
2022/01/24 07:21:07;;;;;;;7.90;6.60;;;6.20;99.90;;;;;;5077464;28;20408;-71
2022/01/24 07:23:35;;;;;;;7.13;5.87;;;6.20;99.90;;;;;;5077242;28;20444;-71
2022/01/24 07:26:02;;;;;;;8.60;6.47;;;6.10;99.90;;;;;;5077145;28;20533;-71
2022/01/24 07:28:29;;;;;;;9.97;6.50;;;6.10;99.90;;;;;;5077178;28;20482;-71
2022/01/24 07:30:56;;;;;;;13.90;7.77;;;6.10;99.90;;;;;;5076813;28;20926;-70
2022/01/24 07:33:24;;;;;;;7.70;7.00;;;6.10;99.90;;;;;;5077122;28;20448;-71
2022/01/24 07:35:51;;;;;;;8.10;7.30;;;6.00;99.90;;;;;;5076683;28;21000;-71
2022/01/24 07:38:17;;;;;;;8.27;7.47;;;6.00;99.90;;;;;;5077028;28;20830;-72
2022/01/24 07:40:47;;;;;;;10.87;7.00;;;6.00;99.90;;;;;;5077019;28;20429;-71
2022/01/24 07:43:15;;;;;;;7.60;6.80;;;5.90;99.90;;;;;;5076696;28;20474;-71
2022/01/24 07:45:44;;;;;;;6.20;5.70;;;5.90;99.90;;;;;;5077191;28;20475;-71
2022/01/24 07:48:12;;;;;;;7.30;6.40;;;5.90;99.90;;;;;;5076813;28;20848;-71
2022/01/24 07:50:44;;;;;;;6.83;6.13;;;5.80;99.90;;;;;;5076819;28;20848;-71
2022/01/24 07:53:12;;;;;;;8.93;7.47;;;5.80;99.90;;;;;;5076503;28;20993;-71
2022/01/24 07:55:39;;;;;;;9.40;6.60;;;5.80;99.90;;;;;;5076572;28;20487;-71
2022/01/24 07:58:06;;;;;;;8.17;6.80;;;5.80;99.90;;;;;;5076664;28;20455;-71
2022/01/24 08:00:33;;;;;;;7.83;6.80;;;5.80;99.90;;;;;;5077299;28;20441;-71
2022/01/24 08:03:00;;;;;;;6.20;5.70;;;5.70;99.90;;;;;;5076117;28;20965;-71
2022/01/24 08:05:28;;;;;;;6.40;5.80;;;5.70;99.90;;;;;;5076463;28;20492;-71
2022/01/24 08:07:56;;;;;;;6.77;6.07;;;5.60;99.90;;;;;;5076485;28;20440;-71
2022/01/24 08:10:23;;;;;;;7.57;5.67;;;5.60;99.70;;;;;;5076459;28;20471;-71
2022/01/24 08:12:50;;;;;;;6.77;6.17;;;5.60;99.70;;;;;;5076412;28;20443;-71
2022/01/24 08:15:16;;;;;;;10.00;7.13;;;5.60;99.60;;;;;;5075866;28;20969;-71
2022/01/24 08:17:44;;;;;;;7.30;6.53;;;5.60;99.50;;;;;;5076031;28;20825;-71
2022/01/24 08:20:13;;;;;;;10.07;7.60;;;5.60;99.40;;;;;;5075956;28;20960;-71
2022/01/24 08:22:39;;;;;;;9.93;7.50;;;5.50;99.40;;;;;;5076179;28;20440;-71
2022/01/24 08:25:08;;;;;;;11.80;8.40;;;5.60;99.50;;;;;;5075990;28;20465;-71
2022/01/24 08:27:36;;;;;;;11.03;8.10;;;5.60;99.60;;;;;;5076131;28;20449;-71
2022/01/24 08:30:06;;;;;;;10.80;9.47;;;5.50;99.60;;;;;;5075513;28;20451;-71
2022/01/24 08:32:33;;;;;;;12.80;9.67;;;5.60;99.60;;;;;;5075955;28;20452;-71
2022/01/24 08:35:00;;;;;;;14.63;10.00;;;5.60;99.60;;;;;;5075589;28;21001;-71
2022/01/24 08:37:27;;;;;;;12.60;8.87;;;5.60;99.70;;;;;;5075895;28;20471;-71
2022/01/24 08:39:54;;;;;;;12.23;8.37;;;5.60;99.80;;;;;;5075886;28;20440;-71
2022/01/24 08:42:29;;;;;;;13.70;9.83;;;5.60;99.70;;;;;;5075574;28;20445;-71
2022/01/24 08:47:52;;;;;;;15.87;9.77;;;5.70;99.90;;;;;;4994179;28;21034;-72
2022/01/24 08:50:25;;;;;;;12.93;10.50;;;5.70;99.90;;;;;;5056109;28;20444;-71
2022/01/24 08:52:52;;;;;;;17.10;12.30;;;5.70;99.90;;;;;;5075716;28;20502;-71
2022/01/24 08:55:18;;;;;;;15.20;11.63;;;5.70;99.90;;;;;;5075154;28;20456;-71
2022/01/24 08:57:46;;;;;;;18.13;12.17;;;5.80;99.90;;;;;;5075510;28;20448;-71
2022/01/24 09:00:14;;;;;;;13.43;11.67;;;5.80;99.90;;;;;;5075487;28;20442;-71
2022/01/24 09:02:41;;;;;;;18.13;11.60;;;5.90;99.90;;;;;;5075344;28;20460;-71
2022/01/24 09:05:08;;;;;;;16.67;12.57;;;5.90;99.90;;;;;;5075007;28;20468;-71
2022/01/24 09:07:36;;;;;;;14.23;10.97;;;6.00;99.90;;;;;;5075311;28;20448;-71
2022/01/24 09:10:03;;;;;;;18.20;12.60;;;6.10;99.90;;;;;;5075299;28;20476;-71
2022/01/24 09:12:30;;;;;;;17.80;11.73;;;6.20;99.90;;;;;;5075214;28;20437;-71
2022/01/24 09:14:58;;;;;;;12.70;11.03;;;6.30;99.90;;;;;;5075203;28;20465;-71
2022/01/24 09:17:25;;;;;;;16.73;12.10;;;6.40;99.90;;;;;;5075102;28;20481;-71
2022/01/24 09:19:52;;;;;;;16.40;12.10;;;6.50;99.90;;;;;;5075065;28;20448;-71
2022/01/24 09:22:18;;;;;;;15.00;11.60;;;6.60;99.90;;;;;;5074776;28;20984;-71
2022/01/24 09:24:45;;;;;;;13.17;11.50;;;6.60;99.90;;;;;;5074935;28;20472;-71
2022/01/24 09:27:12;;;;;;;13.00;11.60;;;6.80;99.90;;;;;;5074918;28;20842;-71
2022/01/24 09:29:39;;;;;;;14.20;12.03;;;6.80;99.90;;;;;;5074938;28;20500;-71
2022/01/24 09:32:07;;;;;;;13.07;11.77;;;6.90;99.90;;;;;;5075004;28;20448;-71
2022/01/24 09:34:34;;;;;;;18.20;10.90;;;7.00;99.90;;;;;;5074745;28;20535;-71
2022/01/24 09:37:02;;;;;;;16.77;9.60;;;7.10;99.90;;;;;;5074616;28;20476;-71
2022/01/24 09:39:28;;;;;;;10.90;9.80;;;7.20;99.90;;;;;;5074709;28;20452;-71
2022/01/24 09:41:55;;;;;;;13.57;10.10;;;7.20;99.90;;;;;;5073781;28;20424;-71
2022/01/24 09:44:22;;;;;;;9.90;8.90;;;7.30;99.60;;;;;;5074568;28;20444;-71
2022/01/24 09:46:49;;;;;;;12.20;10.10;;;7.30;99.30;;;;;;5074583;28;20436;-71
2022/01/24 09:49:17;;;;;;;11.37;9.40;;;7.40;99.20;;;;;;5074233;28;20999;-71
2022/01/24 09:51:44;;;;;;;9.57;8.60;;;7.40;98.90;;;;;;5074185;28;20939;-71
2022/01/24 09:54:13;;;;;;;9.20;8.17;;;7.40;98.80;;;;;;5074382;28;20543;-71
2022/01/24 09:56:40;;;;;;;9.93;8.90;;;7.50;98.80;;;;;;5074189;28;20556;-71
2022/01/24 09:59:07;;;;;;;8.63;7.63;;;7.60;98.40;;;;;;5074354;28;20440;-71
2022/01/24 10:01:34;;;;;;;9.87;8.97;;;7.50;98.20;;;;;;5073973;28;20973;-71
2022/01/24 10:04:25;;;;;;;9.30;8.17;;;7.60;98.50;;;;;;5073866;28;20464;-71
2022/01/24 10:07:06;;;;;;;9.17;7.80;;;7.60;98.50;;;;;;5074003;28;20520;-71
2022/01/24 10:09:36;;;;;;;8.10;7.40;;;7.80;98.60;;;;;;5074194;28;20440;-71
2022/01/24 10:12:24;;;;;;;7.90;7.30;;;7.80;97.60;;;;;;5074389;28;20463;-71
2022/01/24 10:17:39;;;;;;;7.50;6.80;;;7.90;97.80;;;;;;5074067;28;20452;-71
2022/01/24 10:20:18;;;;;;;8.17;7.37;;;7.90;97.40;;;;;;5074009;28;20771;-71
2022/01/24 10:23:01;;;;;;;7.57;6.87;;;7.90;97.40;;;;;;5073940;28;20425;-71
2022/01/24 10:25:28;;;;;;;7.37;6.60;;;8.00;97.20;;;;;;5074069;28;20522;-71
2022/01/24 10:28:02;;;;;;;7.20;6.50;;;8.10;96.40;;;;;;5073914;28;20440;-71
2022/01/24 10:30:31;;;;;;;6.97;6.37;;;8.00;96.40;;;;;;5073856;28;20498;-71
2022/01/24 10:33:00;;;;;;;6.97;6.37;;;8.00;96.40;;;;;;5073744;28;20832;-71
2022/01/24 10:35:31;;;;;;;8.47;7.70;;;8.10;96.90;;;;;;5073627;28;20472;-71
2022/01/24 10:38:33;;;;;;;7.80;7.10;;;8.10;96.50;;;;;;5073628;28;20553;-72
2022/01/24 10:41:18;;;;;;;8.10;7.40;;;8.20;96.20;;;;;;5059227;28;20849;-71
2022/01/24 10:43:46;;;;;;;7.53;6.83;;;8.20;95.60;;;;;;5073432;28;21009;-72
2022/01/24 10:46:14;;;;;;;8.57;7.80;;;8.20;95.20;;;;;;5073485;28;20456;-70
2022/01/24 10:48:43;;;;;;;6.37;5.87;;;8.20;95.40;;;;;;5073557;28;20420;-70
2022/01/24 10:51:13;;;;;;;6.73;6.10;;;8.20;96.00;;;;;;5073196;28;20535;-72
2022/01/24 10:53:43;;;;;;;8.10;6.63;;;8.30;96.10;;;;;;5073281;28;20421;-70
2022/01/24 10:56:32;;;;;;;8.27;7.50;;;8.30;95.70;;;;;;5073381;28;20460;-70
2022/01/24 10:59:04;;;;;;;7.23;6.63;;;8.30;94.70;;;;;;5073534;28;20432;-71
2022/01/24 11:01:31;;;;;;;8.10;6.90;;;8.30;94.80;;;;;;5073534;28;20433;-70
2022/01/24 11:04:00;;;;;;;6.63;6.13;;;8.30;95.30;;;;;;5073073;28;20492;-72
2022/01/24 11:06:28;;;;;;;6.73;6.00;;;8.30;95.40;;;;;;5073283;28;20461;-71
2022/01/24 11:09:15;;;;;;;7.60;6.97;;;8.30;95.50;;;;;;5073466;28;20787;-72
2022/01/24 11:11:42;;;;;;;7.60;6.63;;;8.40;94.80;;;;;;5073640;28;20451;-70
2022/01/24 11:14:13;;;;;;;7.13;6.43;;;8.40;94.40;;;;;;5073319;28;20494;-71
2022/01/24 11:16:40;;;;;;;8.40;6.93;;;8.40;94.30;;;;;;5073263;28;20468;-72
2022/01/24 11:19:12;;;;;;;7.43;6.83;;;8.40;94.70;;;;;;5073276;28;20444;-71
2022/01/24 11:21:39;;;;;;;7.00;6.30;;;8.50;94.40;;;;;;5073038;28;20429;-70
2022/01/24 11:24:08;;;;;;;6.30;5.80;;;8.60;94.60;;;;;;5073274;28;20490;-73
2022/01/24 11:26:36;;;;;;;6.93;6.33;;;8.70;95.00;;;;;;5072857;28;20988;-72
2022/01/24 11:29:04;;;;;;;7.20;6.60;;;8.90;94.80;;;;;;5073104;28;20445;-71
2022/01/24 11:31:41;;;;;;;7.03;6.47;;;9.10;94.50;;;;;;5073149;28;20445;-72
2022/01/24 11:34:15;;;;;;;7.83;7.10;;;9.20;93.60;;;;;;5073208;28;20428;-71
2022/01/24 11:36:44;;;;;;;7.60;6.97;;;9.30;93.60;;;;;;5073082;28;20465;-72
2022/01/24 11:39:11;;;;;;;8.60;7.33;;;9.40;92.70;;;;;;5073092;28;20441;-72
2022/01/24 11:41:41;;;;;;;7.10;6.50;;;9.50;92.90;;;;;;5073212;28;20490;-72
2022/01/24 11:44:11;;;;;;;6.73;6.23;;;9.70;93.00;;;;;;5074560;28;20444;-73
2022/01/24 11:46:44;;;;;;;8.10;7.30;;;9.90;93.10;;;;;;5074160;28;20798;-71
2022/01/24 11:49:13;;;;;;;7.33;6.63;;;10.30;91.60;;;;;;5073077;28;20439;-72
2022/01/24 11:51:41;;;;;;;6.57;6.17;;;10.80;91.10;;;;;;5073165;28;20455;-71
2022/01/24 11:54:30;;;;;;;7.63;6.87;;;11.20;90.00;;;;;;5073050;28;20449;-71
2022/01/24 11:57:17;;;;;;;6.43;5.83;;;11.40;87.90;;;;;;5072995;28;20514;-72
2022/01/24 11:59:44;;;;;;;7.90;7.20;;;11.70;86.40;;;;;;5072755;28;20925;-71
2022/01/24 12:02:13;;;;;;;7.63;6.70;;;11.70;85.10;;;;;;5072887;28;20420;-71
2022/01/24 12:04:50;;;;;;;6.97;6.30;;;11.80;83.40;;;;;;5073233;28;20472;-71
2022/01/24 12:07:18;;;;;;;7.00;6.30;;;11.80;82.60;;;;;;5076673;28;20425;-71
2022/01/24 12:09:45;;;;;;;6.47;5.87;;;11.80;82.60;;;;;;5076640;28;20432;-71
2022/01/24 12:12:48;;;;;;;6.90;6.33;;;11.80;82.40;;;;;;5076985;28;20510;-72
2022/01/24 12:16:04;;;;;;;6.57;5.97;;;11.70;82.60;;;;;;5076975;28;20492;-71
2022/01/24 12:19:04;;;;;;;6.90;6.30;;;11.80;82.70;;;;;;5076827;28;20464;-74
2022/01/24 12:21:33;;;;;;;6.77;6.03;;;11.70;82.00;;;;;;5076741;28;20448;-72
2022/01/24 12:24:06;;;;;;;7.33;6.63;;;11.70;82.00;;;;;;5076444;28;20452;-73
2022/01/24 12:26:36;;;;;;;7.03;6.50;;;11.70;82.30;;;;;;5076011;28;20539;-73
2022/01/24 12:29:07;;;;;;;7.23;6.70;;;11.70;82.40;;;;;;5076350;28;20452;-72
2022/01/24 12:31:45;;;;;;;6.97;6.37;;;11.70;82.60;;;;;;5076059;28;20903;-72
2022/01/24 12:34:19;;;;;;;7.77;6.90;;;11.70;82.50;;;;;;5075969;28;20488;-72
2022/01/24 12:37:02;;;;;;;6.33;5.70;;;11.80;82.50;;;;;;5075755;28;20524;-71
2022/01/24 12:39:37;;;;;;;7.07;6.47;;;12.00;81.90;;;;;;5075957;28;20447;-71
2022/01/24 12:42:10;;;;;;;7.37;6.77;;;12.20;80.60;;;;;;5075823;28;20456;-74
2022/01/24 12:47:27;;;;;;;6.90;6.40;;;12.20;79.30;;;;;;5076112;28;20401;-72
2022/01/24 12:49:56;;;;;;;7.47;6.73;;;12.20;79.10;;;;;;5075786;28;20452;-71
2022/01/24 12:52:25;;;;;;;8.57;7.77;;;12.10;79.00;;;;;;5075628;28;20445;-71
2022/01/24 12:54:55;;;;;;;8.43;7.47;;;12.10;79.10;;;;;;5075518;28;20871;-71
2022/01/24 12:57:29;;;;;;;7.80;7.10;;;12.00;78.90;;;;;;5075463;28;20465;-73
2022/01/24 12:59:59;;;;;;;7.00;6.37;;;11.90;79.00;;;;;;5075666;28;20428;-69
2022/01/24 13:02:28;;;;;;;7.80;7.10;;;11.90;79.50;;;;;;5075315;28;20444;-71
2022/01/24 13:05:04;;;;;;;8.83;8.03;;;11.90;79.80;;;;;;5075143;28;20498;-71
2022/01/24 13:07:31;;;;;;;7.80;7.20;;;11.80;79.60;;;;;;5075437;28;20436;-71
2022/01/24 13:10:10;;;;;;;9.00;8.10;;;11.70;79.40;;;;;;5075348;28;20543;-72
2022/01/24 13:12:37;;;;;;;7.63;6.90;;;11.70;79.70;;;;;;5075437;28;20425;-71
2022/01/24 13:15:19;;;;;;;7.50;6.90;;;11.50;78.50;;;;;;5075400;28;20472;-71
2022/01/24 13:23:23;;;;;;;7.00;6.40;;;11.40;81.20;;;;;;5075978;28;20451;-72
2022/01/24 13:25:50;;;;;;;7.40;6.80;;;11.40;81.80;;;;;;5075972;28;20468;-71
2022/01/24 13:28:19;;;;;;;8.20;7.50;;;11.50;82.00;;;;;;5075785;28;20441;-72
2022/01/24 13:30:50;;;;;;;7.90;7.20;;;11.60;81.80;;;;;;5076389;28;20465;-72
2022/01/24 13:33:20;;;;;;;6.57;5.97;;;11.60;81.50;;;;;;5076978;28;20532;-74
2022/01/24 13:35:48;;;;;;;6.87;6.07;;;11.60;81.30;;;;;;5076499;28;20961;-74
2022/01/24 13:38:16;;;;;;;7.57;5.80;;;11.50;81.40;;;;;;5076762;28;20465;-74
2022/01/24 13:40:52;;;;;;;7.43;6.83;;;11.40;81.70;;;;;;5076561;28;20452;-73
2022/01/24 13:43:30;;;;;;;7.00;6.50;;;11.30;80.80;;;;;;5074936;28;20432;-70
2022/01/24 13:45:59;;;;;;;6.80;6.20;;;11.10;81.50;;;;;;5074810;28;20499;-70
2022/01/24 13:48:26;;;;;;;9.27;6.73;;;11.00;82.40;;;;;;5075394;28;20443;-72
2022/01/24 13:50:54;;;;;;;6.87;6.10;;;11.00;83.40;;;;;;5075032;28;20437;-73
2022/01/24 13:53:32;;;;;;;6.30;5.80;;;10.90;84.10;;;;;;5074861;28;20462;-74
2022/01/24 13:55:59;;;;;;;6.93;6.30;;;10.90;84.80;;;;;;5074649;28;20491;-73
2022/01/24 13:58:26;;;;;;;7.20;6.60;;;10.80;85.10;;;;;;5074487;28;20472;-72
2022/01/24 14:00:58;;;;;;;5.87;5.37;;;10.80;85.60;;;;;;5074402;28;20467;-70
2022/01/24 14:03:25;;;;;;;8.30;5.47;;;10.80;86.00;;;;;;5074137;28;20905;-71
2022/01/24 14:06:16;;;;;;;4.87;4.40;;;10.70;86.10;;;;;;5074018;28;20500;-73
2022/01/24 14:08:44;;;;;;;5.07;4.57;;;10.60;86.10;;;;;;5074355;28;20428;-72
2022/01/24 14:11:13;;;;;;;5.50;5.03;;;10.50;86.50;;;;;;5074119;28;20934;-71
2022/01/24 14:13:46;;;;;;;6.43;5.60;;;10.50;87.20;;;;;;5074528;28;20440;-72
2022/01/24 14:16:37;;;;;;;5.70;5.30;;;10.40;87.50;;;;;;5074305;28;20467;-72
2022/01/24 14:19:04;;;;;;;6.20;5.70;;;10.30;88.00;;;;;;5074282;28;20550;-72
2022/01/24 14:21:31;;;;;;;6.63;6.13;;;10.30;88.60;;;;;;5074068;28;20449;-72
2022/01/24 14:24:00;;;;;;;5.70;5.20;;;10.20;89.10;;;;;;5074015;28;20812;-72
2022/01/24 14:26:28;;;;;;;6.23;5.63;;;10.20;89.50;;;;;;5073940;28;20473;-72
2022/01/24 14:29:07;;;;;;;5.87;5.37;;;10.20;90.00;;;;;;5073640;28;20463;-70
2022/01/24 14:31:36;;;;;;;6.13;5.63;;;10.10;90.00;;;;;;5073991;28;20439;-72
2022/01/24 14:34:05;;;;;;;5.80;5.40;;;10.10;90.10;;;;;;5074391;28;20445;-71
2022/01/24 14:36:32;;;;;;;9.13;6.67;;;10.00;90.10;;;;;;5073711;28;20468;-72
2022/01/24 14:39:00;;;;;;;6.87;5.90;;;10.00;90.20;;;;;;5073653;28;20480;-72